Please enter the email address for your account. A verification code will be sent to you. Once you have received the verification code, you will be able to choose a new password for your account.

METAR TAF

[Source: ADDS]
METAR
LFCR 051930Z AUTO 29005KT CAVOK 24/05 Q1016 NOSIG =
LFCR 051700Z 0518/0618 30007KT CAVOK LFBA 051930Z AUTO 26004KT 9999 1800 NSC 26/09 Q1014 NOSIG =
LFBA 051400Z 0515/0524 09005KT CAVOK LFSL 051930Z AUTO 30004KT CAVOK 24/08 Q1015 NOSIG =
LFSL 051400Z 0515/0524 34005KT CAVOK LFLW 051900Z AUTO 33004KT 300V360 CAVOK 25/06 Q1016 =
LFLW 051400Z 0515/0524 30005KT CAVOK
TAF
LFCR 051700Z 0518/0618 30007KT CAVOK =
LFBA 051400Z 0515/0524 09005KT CAVOK =
LFSL 051400Z 0515/0524 34005KT CAVOK =
LFLW 051400Z 0515/0524 30005KT CAVOK =
SR / SS: 04:46 / 19:13 UTC (LFCC 2020-08-05)